createdAt,value
2022-08-22T00:01:14.203Z,3.03
2022-08-22T00:03:52.759Z,2.65
2022-08-22T00:06:27.670Z,2.95
2022-08-22T00:09:06.634Z,2.72
2022-08-22T00:11:42.892Z,2.35
2022-08-22T00:14:17.944Z,2.45
2022-08-22T00:16:53.497Z,2.05
2022-08-22T00:19:25.745Z,2.28
2022-08-22T00:22:00.193Z,2.75
2022-08-22T00:24:33.925Z,2.25
2022-08-22T00:27:05.310Z,2.95
2022-08-22T00:29:39.211Z,2.60
2022-08-22T00:32:13.332Z,2.58
2022-08-22T00:34:53.043Z,2.75
2022-08-22T00:37:25.920Z,2.72
2022-08-22T00:40:03.336Z,2.72
2022-08-22T00:42:53.213Z,2.80
2022-08-22T00:45:54.108Z,2.67
2022-08-22T00:48:35.645Z,3.08
2022-08-22T00:51:28.366Z,2.60
2022-08-22T00:54:03.267Z,2.05
2022-08-22T00:56:58.629Z,2.35
2022-08-22T00:59:40.055Z,2.90
2022-08-22T01:02:24.222Z,2.67
2022-08-22T01:05:06.203Z,2.65
2022-08-22T01:07:54.047Z,2.38
2022-08-22T01:10:38.631Z,2.15
2022-08-22T01:13:19.875Z,2.45
2022-08-22T01:15:50.287Z,2.83
2022-08-22T01:18:34.062Z,2.17
2022-08-22T01:21:34.560Z,2.72
2022-08-22T01:24:40.433Z,2.67
2022-08-22T01:27:30.897Z,2.90
2022-08-22T01:30:19.787Z,2.80
2022-08-22T01:33:22.752Z,2.60
2022-08-22T01:36:13.940Z,2.60
2022-08-22T01:39:00.401Z,2.28
2022-08-22T01:42:12.745Z,2.72
2022-08-22T01:45:18.383Z,2.60
2022-08-22T01:47:53.626Z,3.17
2022-08-22T01:50:26.013Z,2.58
2022-08-22T01:53:02.355Z,2.78
2022-08-22T01:55:34.751Z,3.28
2022-08-22T01:58:04.207Z,3.08
2022-08-22T02:00:51.224Z,2.67
2022-08-22T02:03:25.218Z,2.75
2022-08-22T02:06:02.590Z,2.88
2022-08-22T02:08:40.352Z,2.40
2022-08-22T02:11:09.771Z,2.40
2022-08-22T02:13:48.668Z,2.42
2022-08-22T02:16:25.396Z,2.92
2022-08-22T02:19:04.592Z,2.63
2022-08-22T02:21:42.673Z,2.97
2022-08-22T02:24:34.409Z,2.80
2022-08-22T02:27:08.425Z,2.55
2022-08-22T02:29:42.237Z,2.78
2022-08-22T02:32:19.018Z,2.97
2022-08-22T02:34:58.673Z,3.10
2022-08-22T02:37:34.972Z,3.13
2022-08-22T02:40:09.510Z,3.38
2022-08-22T02:42:43.755Z,2.95
2022-08-22T02:47:51.240Z,2.80
2022-08-22T02:50:23.581Z,2.55
2022-08-22T02:52:57.521Z,2.58
2022-08-22T02:55:37.880Z,2.83
2022-08-22T02:58:08.568Z,2.50
2022-08-22T03:00:46.426Z,2.75
2022-08-22T03:03:21.785Z,2.55
2022-08-22T03:06:00.878Z,2.83
2022-08-22T03:08:31.113Z,2.67
2022-08-22T03:11:08.543Z,3.25
2022-08-22T03:13:48.058Z,2.70
2022-08-22T03:16:21.933Z,2.40
2022-08-22T03:18:59.370Z,2.67
2022-08-22T03:21:31.976Z,3.05
2022-08-22T03:24:07.102Z,2.50
2022-08-22T03:26:46.745Z,2.67
2022-08-22T03:29:18.424Z,2.58
2022-08-22T03:32:08.661Z,2.33
2022-08-22T03:34:36.713Z,3.25
2022-08-22T03:37:12.911Z,2.80
2022-08-22T03:39:51.600Z,2.75
2022-08-22T03:42:54.936Z,2.75
2022-08-22T03:45:43.641Z,2.85
2022-08-22T03:48:45.161Z,2.60
2022-08-22T03:51:22.209Z,3.00
2022-08-22T03:54:17.403Z,2.63
2022-08-22T03:57:17.537Z,2.58
2022-08-22T04:00:13.908Z,3.30
2022-08-22T04:03:19.557Z,2.88
2022-08-22T04:06:17.812Z,2.70
2022-08-22T04:09:03.132Z,2.90
2022-08-22T04:12:09.670Z,2.50
2022-08-22T04:14:59.244Z,3.60
2022-08-22T04:17:40.875Z,3.08
2022-08-22T04:20:36.647Z,2.80
2022-08-22T04:23:32.869Z,2.97
2022-08-22T04:26:12.104Z,3.15
2022-08-22T04:28:43.516Z,3.95
2022-08-22T04:31:12.449Z,4.05
2022-08-22T04:33:46.033Z,4.35
2022-08-22T04:36:19.066Z,3.75
2022-08-22T04:38:50.437Z,3.50
2022-08-22T04:41:21.580Z,4.03
2022-08-22T04:43:54.740Z,3.60
2022-08-22T04:46:25.845Z,4.35
2022-08-22T04:49:07.764Z,2.92
2022-08-22T04:51:38.521Z,3.60
2022-08-22T04:54:25.901Z,2.60
2022-08-22T04:57:10.871Z,2.78
2022-08-22T04:59:38.609Z,2.80
2022-08-22T05:02:09.343Z,3.03
2022-08-22T05:04:41.065Z,2.47
2022-08-22T05:07:12.923Z,2.60
2022-08-22T05:09:46.057Z,3.05
2022-08-22T05:12:18.322Z,3.08
2022-08-22T05:14:51.701Z,3.30
2022-08-22T05:17:25.163Z,2.40
2022-08-22T05:19:55.312Z,2.70
2022-08-22T05:22:28.281Z,2.70
2022-08-22T05:24:59.471Z,2.88
2022-08-22T05:27:29.446Z,3.00
2022-08-22T05:30:02.777Z,2.83
2022-08-22T05:32:35.378Z,3.47
2022-08-22T05:35:08.313Z,3.45
2022-08-22T05:37:42.061Z,3.20
2022-08-22T05:40:18.838Z,3.30
2022-08-22T05:42:46.853Z,3.03
2022-08-22T05:45:16.767Z,4.30
2022-08-22T05:47:48.114Z,3.00
2022-08-22T05:50:19.978Z,3.58
2022-08-22T05:53:01.865Z,3.67
2022-08-22T05:55:31.340Z,3.38
2022-08-22T05:58:28.866Z,3.53
2022-08-22T06:01:03.826Z,4.18
2022-08-22T06:03:35.252Z,3.70
2022-08-22T06:06:10.213Z,4.05
2022-08-22T06:08:39.490Z,3.80
2022-08-22T06:11:11.894Z,4.65
2022-08-22T06:13:42.221Z,4.40
2022-08-22T06:16:15.466Z,4.95
2022-08-22T06:18:44.698Z,4.70
2022-08-22T06:21:18.861Z,4.78
2022-08-22T06:26:21.202Z,4.10
2022-08-22T06:28:54.622Z,4.30
2022-08-22T06:31:26.981Z,4.55
2022-08-22T06:33:57.809Z,4.30
2022-08-22T06:36:26.885Z,4.55
2022-08-22T06:38:59.844Z,4.22
2022-08-22T06:41:30.690Z,4.35
2022-08-22T06:43:59.283Z,4.35
2022-08-22T06:46:28.934Z,3.97
2022-08-22T06:49:00.206Z,4.00
2022-08-22T06:51:29.738Z,3.80
2022-08-22T06:54:01.669Z,4.22
2022-08-22T06:56:33.990Z,4.50
2022-08-22T06:59:06.864Z,4.43
2022-08-22T07:01:35.853Z,4.60
2022-08-22T07:04:05.672Z,4.40
2022-08-22T07:06:36.434Z,4.72
2022-08-22T07:09:06.742Z,4.60
2022-08-22T07:11:38.578Z,4.30
2022-08-22T07:14:08.217Z,3.50
2022-08-22T07:16:40.977Z,4.38
2022-08-22T07:19:09.833Z,3.20
2022-08-22T07:21:46.939Z,2.05
2022-08-22T07:24:17.564Z,1.85
2022-08-22T07:26:50.877Z,1.92
2022-08-22T07:29:28.845Z,1.83
2022-08-22T07:32:06.190Z,1.50
2022-08-22T07:34:45.019Z,1.33
2022-08-22T07:37:18.157Z,1.40
2022-08-22T07:39:51.701Z,2.03
2022-08-22T07:42:27.479Z,1.63
2022-08-22T07:45:05.480Z,1.58
2022-08-22T07:47:49.664Z,1.38
2022-08-22T07:52:49.557Z,1.67
2022-08-22T07:55:19.493Z,1.20
2022-08-22T07:57:51.233Z,1.10
2022-08-22T08:00:20.462Z,1.42
2022-08-22T08:02:51.376Z,1.30
2022-08-22T08:05:20.217Z,1.25
2022-08-22T08:07:48.973Z,1.50
2022-08-22T08:10:19.566Z,1.60
2022-08-22T08:13:00.564Z,1.60
2022-08-22T08:15:32.519Z,1.67
2022-08-22T08:18:03.013Z,1.45
2022-08-22T08:20:30.357Z,1.50
2022-08-22T08:22:59.988Z,0.95
2022-08-22T08:25:30.038Z,1.42
2022-08-22T08:27:59.175Z,1.25
2022-08-22T08:30:34.867Z,2.40
2022-08-22T08:33:24.295Z,1.45
2022-08-22T08:36:03.412Z,1.25
2022-08-22T08:38:40.932Z,1.20
2022-08-22T08:41:41.651Z,1.80
2022-08-22T08:44:25.463Z,1.40
2022-08-22T08:47:20.417Z,1.17
2022-08-22T08:50:10.513Z,1.05
2022-08-22T08:52:57.786Z,1.30
2022-08-22T08:55:42.527Z,1.25
2022-08-22T08:58:25.500Z,1.33
2022-08-22T09:01:02.082Z,1.67
2022-08-22T09:03:58.296Z,1.30
2022-08-22T09:06:56.686Z,1.20
2022-08-22T09:09:52.603Z,1.20
2022-08-22T09:12:57.054Z,1.23
2022-08-22T09:15:59.743Z,1.30
2022-08-22T09:19:00.428Z,1.25
2022-08-22T09:21:56.961Z,1.23
2022-08-22T09:24:53.200Z,1.27
2022-08-22T09:27:30.573Z,1.42
2022-08-22T09:30:05.955Z,1.50
2022-08-22T09:32:48.473Z,1.52
2022-08-22T09:35:24.986Z,1.40
2022-08-22T09:38:07.561Z,1.52
2022-08-22T09:40:43.316Z,1.55
2022-08-22T09:43:19.848Z,1.45
2022-08-22T09:45:58.314Z,1.50
2022-08-22T09:48:45.980Z,1.50
2022-08-22T09:54:31.485Z,1.38
2022-08-22T09:57:13.883Z,1.63
2022-08-22T09:59:54.792Z,1.60
2022-08-22T10:02:33.571Z,1.52
2022-08-22T10:05:11.960Z,1.52
2022-08-22T10:08:11.438Z,1.17
2022-08-22T10:10:56.450Z,1.48
2022-08-22T10:13:36.034Z,1.55
2022-08-22T10:16:17.733Z,1.63
2022-08-22T10:19:00.539Z,1.30
2022-08-22T10:21:34.580Z,1.23
2022-08-22T10:24:09.756Z,1.60
2022-08-22T10:26:46.217Z,1.27
2022-08-22T10:29:37.890Z,1.52
2022-08-22T10:32:16.480Z,1.45
2022-08-22T10:34:47.932Z,1.48
2022-08-22T10:37:24.103Z,1.98
2022-08-22T10:39:57.717Z,1.20
2022-08-22T10:42:27.911Z,1.20
2022-08-22T10:45:12.770Z,1.40
2022-08-22T10:48:22.369Z,1.35
2022-08-22T10:50:55.086Z,1.20
2022-08-22T10:53:29.381Z,1.30
2022-08-22T10:56:06.866Z,1.40
2022-08-22T10:58:40.310Z,1.98
2022-08-22T11:01:41.634Z,1.80
2022-08-22T11:04:06.242Z,1.65
2022-08-22T11:09:24.678Z,1.20
2022-08-22T11:12:02.173Z,1.02
2022-08-22T11:15:09.435Z,1.65
2022-08-22T11:18:06.617Z,1.42
2022-08-22T11:20:52.675Z,1.70
2022-08-22T11:23:31.473Z,1.20
2022-08-22T11:26:07.052Z,1.52
2022-08-22T11:29:13.323Z,1.50
2022-08-22T11:31:51.565Z,1.38
2022-08-22T11:34:35.012Z,1.83
2022-08-22T11:37:11.596Z,1.50
2022-08-22T11:39:44.894Z,1.35
2022-08-22T11:42:21.988Z,1.40
2022-08-22T11:44:52.724Z,1.20
2022-08-22T11:47:26.376Z,1.60
2022-08-22T11:49:59.274Z,1.33
2022-08-22T11:52:56.909Z,1.10
2022-08-22T11:55:34.561Z,1.50
2022-08-22T11:58:16.369Z,1.30
2022-08-22T12:00:53.969Z,1.20
2022-08-22T12:04:00.279Z,1.40
2022-08-22T12:06:39.126Z,1.20
2022-08-22T12:09:52.106Z,1.42
2022-08-22T12:12:33.456Z,1.00
2022-08-22T12:15:11.091Z,1.38
2022-08-22T12:18:15.340Z,1.10
2022-08-22T12:21:15.903Z,1.20
2022-08-22T12:24:19.012Z,1.20
2022-08-22T12:26:58.377Z,1.23
2022-08-22T12:29:44.751Z,1.27
2022-08-22T12:32:39.802Z,1.00
2022-08-22T12:35:30.034Z,1.38
2022-08-22T12:38:28.102Z,1.00
2022-08-22T12:41:28.518Z,1.23
2022-08-22T12:44:23.256Z,1.65
2022-08-22T12:47:06.295Z,1.00
2022-08-22T12:49:49.821Z,1.38
2022-08-22T12:52:34.421Z,1.40
2022-08-22T12:55:32.830Z,1.10
2022-08-22T12:58:09.418Z,1.27
2022-08-22T13:00:38.463Z,1.13
2022-08-22T13:03:10.884Z,1.38
2022-08-22T13:05:44.003Z,1.30
2022-08-22T13:08:17.401Z,1.48
2022-08-22T13:10:47.581Z,1.00
2022-08-22T13:13:31.664Z,1.30
2022-08-22T13:16:07.513Z,1.08
2022-08-22T13:18:40.122Z,1.23
2022-08-22T13:21:16.801Z,1.48
2022-08-22T13:23:51.616Z,1.45
2022-08-22T13:26:26.950Z,1.45
2022-08-22T13:29:24.483Z,1.42
2022-08-22T13:31:53.457Z,1.10
2022-08-22T13:34:38.477Z,1.23
2022-08-22T13:37:11.601Z,1.30
2022-08-22T13:39:43.016Z,1.30
2022-08-22T13:42:20.373Z,1.20
2022-08-22T13:44:59.367Z,1.23
2022-08-22T13:47:31.787Z,1.25
2022-08-22T13:50:09.106Z,1.20
2022-08-22T13:52:44.133Z,1.30
2022-08-22T13:55:24.168Z,1.23
2022-08-22T13:58:00.801Z,1.27
2022-08-22T14:00:57.874Z,1.10
2022-08-22T14:03:31.768Z,1.20
2022-08-22T14:06:26.579Z,1.30
2022-08-22T14:08:48.588Z,1.17
2022-08-22T14:11:22.407Z,1.20
2022-08-22T14:16:26.848Z,1.30
2022-08-22T14:18:57.405Z,1.13
2022-08-22T14:21:40.754Z,0.95
2022-08-22T14:24:19.974Z,1.10
2022-08-22T14:26:57.839Z,1.20
2022-08-22T14:29:28.161Z,1.30
2022-08-22T14:32:02.731Z,0.93
2022-08-22T14:34:32.789Z,1.15
2022-08-22T14:37:06.615Z,0.82
2022-08-22T14:39:39.271Z,1.02
2022-08-22T14:42:14.945Z,0.95
2022-08-22T14:44:54.290Z,0.85
2022-08-22T14:47:54.060Z,0.80
2022-08-22T14:50:38.197Z,1.00
2022-08-22T14:53:09.121Z,1.10
2022-08-22T14:55:39.088Z,1.27
2022-08-22T14:58:15.938Z,1.00
2022-08-22T15:00:47.449Z,0.90
2022-08-22T15:03:25.325Z,0.82
2022-08-22T15:05:55.954Z,0.90
2022-08-22T15:08:31.250Z,0.85
2022-08-22T15:11:20.368Z,1.15
2022-08-22T15:13:56.598Z,1.13
2022-08-22T15:16:30.317Z,0.75
2022-08-22T15:18:58.941Z,1.20
2022-08-22T15:21:28.186Z,0.82
2022-08-22T15:23:59.411Z,0.65
2022-08-22T15:26:30.813Z,0.90
2022-08-22T15:29:08.631Z,1.30
2022-08-22T15:31:37.903Z,0.90
2022-08-22T15:34:13.738Z,1.13
2022-08-22T15:37:00.857Z,0.82
2022-08-22T15:39:56.910Z,1.30
2022-08-22T15:42:25.909Z,0.70
2022-08-22T15:44:54.525Z,0.90
2022-08-22T15:47:30.418Z,0.90
2022-08-22T15:50:02.765Z,1.23
2022-08-22T15:52:35.607Z,1.20
2022-08-22T15:55:20.847Z,1.00
2022-08-22T15:57:59.703Z,1.17
2022-08-22T16:00:33.823Z,1.38
2022-08-22T16:03:04.421Z,2.15
2022-08-22T16:05:54.570Z,1.42
2022-08-22T16:08:27.640Z,1.35
2022-08-22T16:11:25.471Z,0.98
2022-08-22T16:14:16.953Z,1.00
2022-08-22T16:17:01.530Z,0.88
2022-08-22T16:19:29.539Z,1.27
2022-08-22T16:22:11.154Z,2.05
2022-08-22T16:25:00.838Z,0.90
2022-08-22T16:27:30.156Z,1.10
2022-08-22T16:30:12.525Z,1.52
2022-08-22T16:32:39.736Z,1.23
2022-08-22T16:35:07.137Z,1.00
2022-08-22T16:37:48.576Z,1.10
2022-08-22T16:40:22.916Z,1.33
2022-08-22T16:43:07.981Z,1.38
2022-08-22T16:45:37.820Z,0.98
2022-08-22T16:48:16.709Z,0.85
2022-08-22T16:50:43.699Z,0.98
2022-08-22T16:53:36.884Z,1.05
2022-08-22T16:56:24.968Z,1.30
2022-08-22T16:59:23.363Z,1.13
2022-08-22T17:02:10.333Z,1.08
2022-08-22T17:04:48.428Z,1.02
2022-08-22T17:07:33.176Z,0.90
2022-08-22T17:10:31.646Z,0.93
2022-08-22T17:13:26.485Z,1.02
2022-08-22T17:16:07.915Z,0.98
2022-08-22T17:18:58.068Z,1.10
2022-08-22T17:21:28.929Z,0.70
2022-08-22T17:24:04.236Z,0.80
2022-08-22T17:26:46.692Z,0.90
2022-08-22T17:29:22.221Z,0.95
2022-08-22T17:31:54.886Z,0.60
2022-08-22T17:34:33.145Z,1.35
2022-08-22T17:37:08.459Z,0.70
2022-08-22T17:39:58.732Z,0.70
2022-08-22T17:42:57.213Z,0.60
2022-08-22T17:45:37.091Z,0.90
2022-08-22T17:48:11.962Z,0.70
2022-08-22T17:50:44.794Z,0.80
2022-08-22T17:53:23.465Z,0.90
2022-08-22T17:56:00.233Z,0.70
2022-08-22T17:58:43.258Z,0.80
2022-08-22T18:01:14.191Z,0.73
2022-08-22T18:03:49.546Z,0.73
2022-08-22T18:06:21.709Z,0.60
2022-08-22T18:11:46.120Z,0.80
2022-08-22T18:14:25.809Z,0.95
2022-08-22T18:16:55.221Z,0.70
2022-08-22T18:19:43.392Z,0.93
2022-08-22T18:22:18.691Z,0.82
2022-08-22T18:24:50.892Z,0.70
2022-08-22T18:27:29.963Z,0.82
2022-08-22T18:30:06.952Z,0.85
2022-08-22T18:32:40.045Z,0.90
2022-08-22T18:35:17.413Z,0.75
2022-08-22T18:37:54.045Z,0.70
2022-08-22T18:40:28.484Z,1.00
2022-08-22T18:43:04.213Z,0.70
2022-08-22T18:45:54.695Z,0.80
2022-08-22T18:48:28.489Z,1.15
2022-08-22T18:51:24.319Z,0.88
2022-08-22T18:53:54.515Z,0.80
2022-08-22T18:56:49.379Z,0.80
2022-08-22T18:59:34.871Z,1.10
2022-08-22T19:02:16.625Z,0.98
2022-08-22T19:05:10.048Z,1.10
2022-08-22T19:07:54.387Z,0.70
2022-08-22T19:13:53.650Z,1.00
2022-08-22T19:16:46.360Z,0.90
2022-08-22T19:19:19.412Z,0.93
2022-08-22T19:22:24.634Z,0.95
2022-08-22T19:25:18.215Z,0.90
2022-08-22T19:28:06.281Z,0.90
2022-08-22T19:30:44.243Z,1.02
2022-08-22T19:33:12.177Z,0.90
2022-08-22T19:36:05.423Z,1.10
2022-08-22T19:38:53.628Z,1.00
2022-08-22T19:41:48.097Z,0.82
2022-08-22T19:44:40.436Z,1.20
2022-08-22T19:47:24.124Z,0.93
2022-08-22T19:49:58.116Z,1.15
2022-08-22T19:52:36.085Z,1.30
2022-08-22T19:55:11.133Z,0.90
2022-08-22T19:57:44.447Z,0.95
2022-08-22T20:00:14.723Z,1.03
2022-08-22T20:02:55.817Z,1.23
2022-08-22T20:05:37.595Z,1.40
2022-08-22T20:08:26.597Z,1.40
2022-08-22T20:11:02.373Z,1.08
2022-08-22T20:13:32.749Z,1.13
2022-08-22T20:16:11.903Z,1.40
2022-08-22T20:19:12.848Z,1.15
2022-08-22T20:21:45.390Z,1.00
2022-08-22T20:24:19.138Z,1.35
2022-08-22T20:27:10.384Z,1.13
2022-08-22T20:29:41.953Z,1.23
2022-08-22T20:32:08.892Z,1.00
2022-08-22T20:34:38.481Z,1.40
2022-08-22T20:37:29.014Z,1.10
2022-08-22T20:39:59.198Z,0.88
2022-08-22T20:42:28.612Z,1.13
2022-08-22T20:44:58.811Z,1.10
2022-08-22T20:47:30.323Z,0.90
2022-08-22T20:50:10.740Z,0.95
2022-08-22T20:52:39.436Z,0.90
2022-08-22T20:55:11.905Z,1.15
2022-08-22T20:57:45.536Z,1.08
2022-08-22T21:00:16.961Z,1.10
2022-08-22T21:02:55.078Z,1.00
2022-08-22T21:05:24.701Z,1.20
2022-08-22T21:08:05.248Z,1.23
2022-08-22T21:10:35.087Z,1.17
2022-08-22T21:13:08.342Z,1.20
2022-08-22T21:15:38.479Z,1.40
2022-08-22T21:18:05.743Z,1.30
2022-08-22T21:20:35.876Z,1.00
2022-08-22T21:23:06.078Z,1.27
2022-08-22T21:25:46.068Z,1.15
2022-08-22T21:28:24.156Z,1.30
2022-08-22T21:30:52.278Z,1.48
2022-08-22T21:33:23.574Z,1.50
2022-08-22T21:35:57.069Z,1.50
2022-08-22T21:38:23.987Z,1.10
2022-08-22T21:40:51.227Z,1.25
2022-08-22T21:43:30.391Z,1.02
2022-08-22T21:45:58.662Z,1.00
2022-08-22T21:48:37.924Z,1.27
2022-08-22T21:51:26.967Z,1.08
2022-08-22T21:54:21.675Z,1.17
2022-08-22T21:56:49.717Z,1.25
2022-08-22T21:59:24.970Z,1.38
2022-08-22T22:01:55.431Z,1.33
2022-08-22T22:04:22.609Z,1.40
2022-08-22T22:06:49.334Z,1.48
2022-08-22T22:09:16.040Z,1.30
2022-08-22T22:11:42.777Z,1.20
2022-08-22T22:14:09.497Z,1.48
2022-08-22T22:16:36.219Z,1.60
2022-08-22T22:19:07.443Z,1.58
2022-08-22T22:21:34.237Z,1.30
2022-08-22T22:24:00.960Z,1.17
2022-08-22T22:26:27.717Z,1.30
2022-08-22T22:28:54.478Z,1.83
2022-08-22T22:31:21.288Z,1.60
2022-08-22T22:33:48.045Z,1.30
2022-08-22T22:36:21.026Z,1.10
2022-08-22T22:38:51.524Z,1.48
2022-08-22T22:41:19.370Z,1.48
2022-08-22T22:43:46.071Z,1.77
2022-08-22T22:46:12.808Z,1.50
2022-08-22T22:48:39.560Z,1.50
2022-08-22T22:51:07.915Z,1.30
2022-08-22T22:53:38.384Z,1.77
2022-08-22T22:56:06.770Z,1.25
2022-08-22T22:58:34.816Z,1.23
2022-08-22T23:01:07.469Z,1.25
2022-08-22T23:03:34.226Z,1.40
2022-08-22T23:06:01.075Z,1.25
2022-08-22T23:08:28.028Z,1.50
2022-08-22T23:10:56.092Z,1.15
2022-08-22T23:13:22.781Z,1.38
2022-08-22T23:15:49.464Z,1.40
2022-08-22T23:18:16.179Z,1.30
2022-08-22T23:20:42.894Z,1.42
2022-08-22T23:23:09.588Z,1.25
2022-08-22T23:25:36.323Z,1.67
2022-08-22T23:28:04.501Z,1.23
2022-08-22T23:30:31.232Z,1.42
2022-08-22T23:32:58.045Z,1.33
2022-08-22T23:35:24.748Z,1.90
2022-08-22T23:37:51.472Z,1.88
2022-08-22T23:40:18.407Z,1.33
2022-08-22T23:42:45.217Z,1.48
2022-08-22T23:45:13.295Z,1.33
2022-08-22T23:47:40.037Z,1.60
2022-08-22T23:50:07.160Z,1.40
2022-08-22T23:52:33.965Z,1.10
2022-08-22T23:55:00.703Z,1.35
2022-08-22T23:57:27.851Z,1.58
2022-08-22T23:59:57.662Z,1.48
